Flight Track Log - Related Links

Times and Time Zones

All times are in EDT time to prevent confusion due to time zone crossing. See the SKW4530 flight status page for this flight to view local times or setup timezone preferences in your user account.

Time Position Orientation Groundspeed Altitude Reporting Facility
EDT Latitude Longitude Course Direction KTS MPH feet Rate Location/Type
Mon 01:32:20 PM 40.7647 -111.9739 175° South 186 214 5,300  Level Salt Center
Mon 01:32:50 PM 40.7403 -111.9708 175° South 188 216 6,200 1,978 Climbing Salt Center
Mon 01:33:51 PM 40.6731 -111.9681 178° South 233 268 8,300 2,000 Climbing Salt Center
Mon 01:34:05 PM 40.6611 -111.9642 166° South 236 272 8,700 1,737 Climbing Salt Center
Mon 01:35:07 PM 40.5831 -111.9594 177° South 265 305 10,500 1,839 Climbing Salt Center
Mon 01:36:09 PM 40.5036 -111.9550 178° South 286 329 12,500 2,081 Climbing Salt Center
Mon 01:37:11 PM 40.4156 -111.9497 177° South 293 337 14,800 1,694 Climbing Salt Center
Mon 01:38:13 PM 40.3297 -111.9447 177° South 311 358 16,000 1,258 Climbing Salt Center
Mon 01:39:15 PM 40.2406 -111.9431 179° South 322 371 17,400 1,258 Climbing Salt Center
Mon 01:40:17 PM 40.1436 -111.9608 188° South 329 379 18,600 1,258 Climbing Salt Center
Mon 01:41:19 PM 40.0525 -111.9736 186° South 331 381 20,000 1,113 Climbing Salt Center
Mon 01:42:21 PM 39.9536 -111.9861 186° South 332 382 20,900 919 Climbing Salt Center
Mon 01:43:23 PM 39.8575 -112.0019 187° South 344 396 21,900 919 Climbing Salt Center
Mon 01:44:25 PM 39.7639 -112.0153 186° South 350 403 22,800 968 Climbing Salt Center
Mon 01:45:27 PM 39.6558 -112.0311 186° South 350 403 23,900 919 Climbing Salt Center
Mon 01:46:29 PM 39.5617 -112.0447 186° South 355 409 24,700 823 Climbing Salt Center
Mon 01:47:31 PM 39.4508 -112.0608 186° South 359 413 25,600 871 Climbing Salt Center
Mon 01:48:33 PM 39.3544 -112.0736 186° South 361 415 26,500 823 Climbing Salt Center
Mon 01:49:35 PM 39.2425 -112.0900 186° South 362 417 27,300 629 Climbing Salt Center
Mon 01:50:37 PM 39.1428 -112.1050 187° South 362 417 27,800 484 Climbing Salt Center
Mon 01:51:39 PM 39.0506 -112.1656 207° Southwest 368 423 28,300 484 Climbing Salt Center
Mon 01:52:41 PM 38.9608 -112.2322 210° Southwest 372 428 28,800 484 Climbing Salt Center
Mon 01:53:43 PM 38.8689 -112.2992 210° Southwest 377 434 29,300 532 Climbing Salt Center
Mon 01:54:45 PM 38.7592 -112.3783 209° Southwest 378 435 29,900 528 Climbing Salt Center
Mon 01:55:48 PM 38.6667 -112.4436 209° Southwest 378 435 30,400 480 Climbing Salt Center
Mon 01:56:50 PM 38.5756 -112.5092 209° Southwest 378 435 30,900 484 Climbing Salt Center
Mon 01:57:52 PM 38.4853 -112.5758 210° Southwest 377 434 31,400 484 Climbing Salt Center
Mon 01:58:54 PM 38.3944 -112.6389 209° Southwest 374 430 31,900 290 Climbing Salt Center
Mon 01:59:56 PM 38.3039 -112.7028 209° Southwest 373 429 32,000 48 Climbing Salt Center
Mon 02:00:58 PM 38.1917 -112.7819 209° Southwest 382 440 32,000  Level Salt Center
Mon 02:02:00 PM 38.0958 -112.8503 209° Southwest 392 451 32,000  Level Salt Center
Mon 02:03:02 PM 37.9994 -112.9200 210° Southwest 397 457 32,000  Level Salt Center
Mon 02:04:04 PM 37.9017 -112.9889 209° Southwest 403 464 32,000  Level Salt Center
Mon 02:05:06 PM 37.8061 -113.0572 209° Southwest 400 460 32,000  Level Salt Center
Mon 02:06:08 PM 37.7036 -113.1572 218° Southwest 392 451 32,000  Level Salt Center
Mon 02:07:10 PM 37.6206 -113.2422 219° Southwest 389 448 32,000  Level Salt Center
Mon 02:08:12 PM 37.5381 -113.3269 219° Southwest 387 445 32,000  Level Salt Center
Mon 02:09:16 PM 37.4550 -113.4097 218° Southwest 384 442 32,000  Level Los Center
Mon 02:10:18 PM 37.3553 -113.5097 219° Southwest 383 441 32,000 48 Level Los Center
Mon 02:11:21 PM 37.2733 -113.5947 220° Southwest 382 440 32,100  Climbing Los Center
Mon 02:12:23 PM 37.1897 -113.6778 218° Southwest 384 442 32,000 -48 Descending Los Center
Mon 02:13:25 PM 37.1067 -113.7622 219° Southwest 384 442 32,000  Level Los Center
Mon 02:14:27 PM 37.0233 -113.8478 219° Southwest 387 445 32,000  Level Los Center
Mon 02:15:29 PM 36.9236 -113.9444 218° Southwest 382 440 32,000  Level Los Center
Mon 02:16:31 PM 36.8394 -114.0292 219° Southwest 385 443 32,000  Level Los Center
Mon 02:17:33 PM 36.7553 -114.1144 219° Southwest 388 447 32,000  Level Los Center
Mon 02:18:35 PM 36.6714 -114.2008 220° Southwest 390 449 32,000  Level Los Center
Mon 02:19:38 PM 36.5833 -114.2811 216° Southwest 389 448 32,000  Level Los Center
Mon 02:20:40 PM 36.5006 -114.3644 219° Southwest 385 443 32,000  Level Los Center
Mon 02:21:42 PM 36.4169 -114.4461 218° Southwest 383 441 32,000  Level Los Center
Mon 02:22:44 PM 36.3186 -114.5450 219° Southwest 379 436 32,000  Level Los Center
Mon 02:23:46 PM 36.2375 -114.6272 219° Southwest 377 434 32,000  Level Los Center
Mon 02:24:48 PM 36.1539 -114.7078 218° Southwest 379 436 32,000  Level Los Center
Mon 02:25:50 PM 36.0708 -114.7886 218° Southwest 379 436 32,000  Level Los Center
Mon 02:26:52 PM 36.0050 -114.8539 219° Southwest 378 435 32,000  Level Los Center
Mon 02:27:54 PM 35.9311 -114.9494 226° Southwest 382 440 32,000  Level Los Center
Mon 02:28:57 PM 35.8317 -115.0856 228° Southwest 381 438 32,000  Level Los Center
Mon 02:29:59 PM 35.7606 -115.1822 228° Southwest 381 438 32,000  Level Los Center
Mon 02:31:01 PM 35.6900 -115.2797 228° Southwest 379 436 32,000  Level Los Center
Mon 02:32:03 PM 35.6175 -115.3761 227° Southwest 380 437 32,000  Level Los Center
Mon 02:33:05 PM 35.5447 -115.4736 227° Southwest 385 443 32,000  Level Los Center
Mon 02:34:07 PM 35.4739 -115.5697 228° Southwest 380 437 32,000  Level Los Center
Mon 02:35:09 PM 35.3936 -115.6756 227° Southwest 381 438 32,000  Level Los Center
Mon 02:36:11 PM 35.3231 -115.7714 228° Southwest 379 436 32,000  Level Los Center
Mon 02:37:13 PM 35.2500 -115.8672 227° Southwest 383 441 32,000  Level Los Center
Mon 02:38:16 PM 35.1786 -115.9625 228° Southwest 381 438 32,000 -576 Level Los Center
Mon 02:39:18 PM 35.1067 -116.0581 227° Southwest 380 437 30,800 -1,694 Descending Los Center
Mon 02:40:20 PM 35.0197 -116.1708 227° Southwest 380 437 28,500 -1,935 Descending Los Center
Mon 02:41:22 PM 34.9517 -116.2589 227° Southwest 361 415 26,800 -1,694 Descending Los Center
Mon 02:42:24 PM 34.8856 -116.3458 227° Southwest 352 405 25,000 -1,742 Descending Los Center
Mon 02:43:26 PM 34.8200 -116.4303 227° Southwest 345 397 23,200 -1,403 Descending Los Center
Mon 02:44:28 PM 34.7892 -116.5392 251° West 362 417 22,100 -581 Descending Los Center
Mon 02:45:30 PM 34.7778 -116.6553 263° West 350 403 22,000 -48 Descending Los Center
Mon 02:46:33 PM 34.7647 -116.7919 263° West 341 392 22,000  Level Los Center
Mon 02:47:35 PM 34.7522 -116.9103 263° West 348 400 22,000  Level Los Center
Mon 02:48:37 PM 34.7394 -117.0286 263° West 352 405 22,000 -484 Level Los Center
Mon 02:49:39 PM 34.7281 -117.1458 263° West 350 403 21,000 -1,065 Descending Los Center
Mon 02:50:41 PM 34.7161 -117.2608 263° West 344 396 19,800 -1,210 Descending Los Center
Mon 02:51:43 PM 34.7044 -117.3750 263° West 341 392 18,500 -1,161 Descending Los Center
Mon 02:52:45 PM 34.6922 -117.4861 262° West 333 383 17,400 -1,210 Descending Los Center
Mon 02:53:47 PM 34.6775 -117.6183 262° West 331 381 16,000 -1,113 Descending Los Center
Mon 02:54:49 PM 34.6658 -117.7253 262° West 323 372 15,100 -774 Descending Los Center
Mon 02:55:51 PM 34.6550 -117.8286 263° West 313 360 14,400 -720 Descending Los Center
Mon 02:56:54 PM 34.6450 -117.9375 264° West 321 369 13,600 -1,152 Descending Los Center
Mon 02:58:00 PM 34.6167 -118.0630 270° West  Level FlightAware
Mon 03:00:27 PM 34.5833 -118.3000 107° East 283 326 9,100  Level Southern TRACON
Mon 03:01:28 PM 34.5500 -118.3833 244° Southwest 269 310 8,000 -942 Descending Southern TRACON
Mon 03:02:28 PM 34.5167 -118.4667 244° Southwest 273 314 7,200 -850 Descending Southern TRACON
Mon 03:03:28 PM 34.4500 -118.5167 212° Southwest 265 305 6,300 -900 Descending Southern TRACON
Mon 03:04:28 PM 34.4000 -118.5667 220° Southwest 273 314 5,400 -650 Descending Southern TRACON
Mon 03:05:00 PM 34.2007 -118.3587 162° South  Level Estimated
Mon 03:05:28 PM 34.3167 -118.5833 189° South 262 302 5,000  Level Southern TRACON
Mon 03:06:00 PM 34.2007 -118.3587 107° East  Level Estimated
Mon 03:06:28 PM 34.2500 -118.6000 192° South 252 290 4,800  Level Southern TRACON
Mon 03:07:28 PM 34.2000 -118.5500 140° Southeast 214 246 4,000 -900 Descending Southern TRACON
Mon 03:08:28 PM 34.2000 -118.4833 90° East 186 214 3,000 -1,150 Descending Southern TRACON
Mon 03:09:28 PM 34.2000 -118.4333 90° East 154 177 1,700 -1,000 Descending Southern TRACON
Mon 03:10:28 PM 34.2000 -118.3833 90° East 145 167 1,000 -700 Descending Southern TRACON
Mon 03:12:00 PM 34.2000 -118.3500 90° East  Level FlightAware
Mon 03:19:00 PM 34.2007 -118.3587 90° East  Level Estimated

Login

Don't have an account? Register now (free) for customized features, flight alerts, and more!